Time;durP1;ratioP1;P1;durP2;ratioP2;P2;SDS_P1;SDS_P2;PMS_P1;PMS_P2;Temp;Humidity;BMP_temperature;BMP_pressure;BME280_temperature;BME280_humidity;BME280_pressure;Samples;Min_cycle;Max_cycle;Signal;HPM_P1;HPM_P2
2020/12/07 00:02:05;;;;;;;16.95;10.30;;;;;;;;;;4953337;28;20353;-79
2020/12/07 00:04:33;;;;;;;22.20;10.23;;;;;;;;;;4953719;28;20053;-79
2020/12/07 00:07:01;;;;;;;17.17;10.63;;;;;;;;;;4954120;28;20047;-78
2020/12/07 00:09:28;;;;;;;20.35;11.05;;;;;;;;;;4970260;28;20081;-80
2020/12/07 00:11:56;;;;;;;21.13;11.07;;;;;;;;;;4954729;28;20081;-79
2020/12/07 00:14:23;;;;;;;16.33;10.30;;;;;;;;;;4954354;28;20093;-79
2020/12/07 00:16:50;;;;;;;18.55;10.73;;;;;;;;;;4969208;28;20110;-78
2020/12/07 00:19:18;;;;;;;17.23;10.50;;;;;;;;;;4970144;28;20434;-79
2020/12/07 00:21:47;;;;;;;19.65;10.38;;;;;;;;;;4955451;28;20047;-78
2020/12/07 00:24:14;;;;;;;18.60;10.88;;;;;;;;;;4970125;28;20050;-78
2020/12/07 00:26:44;;;;;;;16.67;10.38;;;;;;;;;;4954624;28;20050;-79
2020/12/07 00:29:11;;;;;;;20.67;10.75;;;;;;;;;;4938966;28;20470;-79
2020/12/07 00:31:37;;;;;;;16.70;10.85;;;;;;;;;;4971881;28;20070;-79
2020/12/07 00:34:03;;;;;;;18.33;10.95;;;;;;;;;;4973572;28;20048;-79
2020/12/07 00:36:30;;;;;;;20.10;10.48;;;;;;;;;;4940940;28;20047;-80
2020/12/07 00:38:57;;;;;;;19.02;10.60;;;;;;;;;;4971790;28;20047;-78
2020/12/07 00:41:24;;;;;;;16.73;10.57;;;;;;;;;;4971863;28;20047;-78
2020/12/07 00:43:50;;;;;;;17.75;10.88;;;;;;;;;;4954272;28;20405;-78
2020/12/07 00:46:17;;;;;;;23.10;11.32;;;;;;;;;;4952877;28;20051;-80
2020/12/07 00:48:45;;;;;;;18.38;10.88;;;;;;;;;;4971158;28;20047;-78
2020/12/07 00:51:11;;;;;;;18.80;10.32;;;;;;;;;;4958841;28;20054;-79
2020/12/07 00:53:37;;;;;;;21.98;11.57;;;;;;;;;;4957709;28;20486;-77
2020/12/07 00:56:04;;;;;;;19.83;11.55;;;;;;;;;;4940944;28;20097;-79
2020/12/07 00:58:31;;;;;;;19.50;11.40;;;;;;;;;;4976149;28;20043;-79
2020/12/07 01:01:00;;;;;;;18.60;10.45;;;;;;;;;;4973299;28;20299;-78
2020/12/07 01:03:27;;;;;;;17.67;10.68;;;;;;;;;;4972401;28;20494;-78
2020/12/07 01:05:54;;;;;;;19.45;11.00;;;;;;;;;;4973125;28;20093;-78
2020/12/07 01:08:22;;;;;;;21.13;11.60;;;;;;;;;;4941067;28;20068;-80
2020/12/07 01:10:53;;;;;;;20.98;11.10;;;;;;;;;;4973091;28;20042;-81
2020/12/07 01:13:20;;;;;;;22.75;11.32;;;;;;;;;;4957485;28;20472;-78
2020/12/07 01:15:47;;;;;;;17.88;10.95;;;;;;;;;;4956714;28;20494;-79
2020/12/07 01:18:13;;;;;;;18.40;11.10;;;;;;;;;;4974584;28;20146;-80
2020/12/07 01:20:39;;;;;;;18.17;11.50;;;;;;;;;;4957152;28;20133;-78
2020/12/07 01:23:06;;;;;;;18.90;11.18;;;;;;;;;;4973475;28;20054;-79
2020/12/07 01:25:34;;;;;;;19.33;10.55;;;;;;;;;;4972581;28;20061;-79
2020/12/07 01:28:01;;;;;;;17.67;10.75;;;;;;;;;;4973757;28;20046;-80
2020/12/07 01:30:27;;;;;;;20.23;11.32;;;;;;;;;;4972832;28;20045;-79
2020/12/07 01:32:54;;;;;;;18.30;10.98;;;;;;;;;;4974054;28;20295;-79
2020/12/07 01:35:20;;;;;;;16.55;10.93;;;;;;;;;;4972513;28;20039;-78
2020/12/07 01:37:48;;;;;;;18.77;10.98;;;;;;;;;;4973054;28;20054;-79
2020/12/07 01:40:15;;;;;;;20.35;11.45;;;;;;;;;;4973214;28;20438;-80
2020/12/07 01:42:42;;;;;;;20.17;11.48;;;;;;;;;;4973282;28;20083;-79
2020/12/07 01:45:09;;;;;;;20.63;10.82;;;;;;;;;;4973956;28;20475;-78
2020/12/07 01:47:35;;;;;;;19.77;11.02;;;;;;;;;;4940442;28;20042;-80
2020/12/07 01:50:03;;;;;;;19.48;10.77;;;;;;;;;;4973923;28;20097;-79
2020/12/07 01:52:29;;;;;;;16.70;11.02;;;;;;;;;;4978484;28;20121;-78
2020/12/07 01:54:56;;;;;;;19.25;10.68;;;;;;;;;;4979094;28;20062;-79
2020/12/07 01:57:22;;;;;;;18.02;10.75;;;;;;;;;;4974931;28;20081;-77
2020/12/07 01:59:49;;;;;;;19.58;10.65;;;;;;;;;;4956664;28;20051;-79
2020/12/07 02:02:15;;;;;;;19.95;11.23;;;;;;;;;;4940526;28;20058;-78
2020/12/07 02:04:42;;;;;;;18.42;11.35;;;;;;;;;;4943792;28;20062;-77
2020/12/07 02:07:16;;;;;;;22.73;11.52;;;;;;;;;;4951779;28;20515;-78
2020/12/07 02:09:43;;;;;;;22.50;11.20;;;;;;;;;;4957793;28;20066;-77
2020/12/07 02:12:11;;;;;;;24.92;11.55;;;;;;;;;;5005927;28;20049;-77
2020/12/07 02:14:38;;;;;;;21.63;11.15;;;;;;;;;;4972498;28;20628;-78
2020/12/07 02:17:04;;;;;;;22.02;11.63;;;;;;;;;;4957360;28;20081;-78
2020/12/07 02:19:31;;;;;;;17.38;11.13;;;;;;;;;;4961823;28;20047;-78
2020/12/07 02:21:59;;;;;;;20.90;11.25;;;;;;;;;;4956177;28;20048;-79
2020/12/07 02:24:26;;;;;;;20.73;11.00;;;;;;;;;;4955245;28;20114;-77
2020/12/07 02:26:53;;;;;;;19.30;11.63;;;;;;;;;;4952085;29;20051;-77
2020/12/07 02:29:26;;;;;;;20.02;11.35;;;;;;;;;;4952749;29;20051;-78
2020/12/07 02:31:58;;;;;;;18.05;10.82;;;;;;;;;;4951355;29;20051;-77
2020/12/07 02:34:25;;;;;;;19.42;11.43;;;;;;;;;;4952810;28;20094;-78
2020/12/07 02:36:52;;;;;;;19.45;11.15;;;;;;;;;;4952919;28;20134;-77
2020/12/07 02:39:19;;;;;;;21.63;11.68;;;;;;;;;;4953883;28;20047;-78
2020/12/07 02:41:46;;;;;;;23.48;11.50;;;;;;;;;;4936867;29;20059;-77
2020/12/07 02:44:12;;;;;;;19.25;11.25;;;;;;;;;;4953040;28;20051;-79
2020/12/07 02:46:39;;;;;;;19.27;11.52;;;;;;;;;;4953064;28;20050;-78
2020/12/07 02:49:05;;;;;;;20.30;11.35;;;;;;;;;;4953544;29;20047;-78
2020/12/07 02:51:32;;;;;;;23.35;11.68;;;;;;;;;;4955749;28;20410;-78
2020/12/07 02:53:58;;;;;;;21.13;11.85;;;;;;;;;;4968494;28;20116;-77
2020/12/07 02:56:24;;;;;;;19.20;11.45;;;;;;;;;;4952596;28;20138;-78
2020/12/07 02:58:51;;;;;;;22.30;12.07;;;;;;;;;;4947202;28;20109;-78
2020/12/07 03:01:17;;;;;;;20.58;12.10;;;;;;;;;;4973593;28;20051;-78
2020/12/07 03:03:44;;;;;;;20.15;12.55;;;;;;;;;;4972719;28;20582;-77
2020/12/07 03:06:10;;;;;;;20.00;12.02;;;;;;;;;;4973420;28;20130;-78
2020/12/07 03:08:36;;;;;;;18.52;11.02;;;;;;;;;;4973487;28;20317;-78
2020/12/07 03:11:03;;;;;;;19.85;12.10;;;;;;;;;;4972793;28;20418;-77
2020/12/07 03:13:29;;;;;;;19.85;12.05;;;;;;;;;;4974078;28;20487;-78
2020/12/07 03:15:56;;;;;;;21.85;12.63;;;;;;;;;;4979561;28;20042;-78
2020/12/07 03:18:23;;;;;;;23.05;11.15;;;;;;;;;;4976350;28;20492;-78
2020/12/07 03:20:50;;;;;;;18.92;11.10;;;;;;;;;;4973376;28;20035;-78
2020/12/07 03:23:16;;;;;;;17.25;11.50;;;;;;;;;;4971626;28;20054;-78
2020/12/07 03:25:42;;;;;;;21.30;10.93;;;;;;;;;;4971334;28;20051;-77
2020/12/07 03:28:09;;;;;;;20.55;11.23;;;;;;;;;;4973325;28;20050;-79
2020/12/07 03:30:35;;;;;;;20.42;9.85;;;;;;;;;;4972364;28;20045;-79
2020/12/07 03:33:01;;;;;;;17.85;11.00;;;;;;;;;;4972795;28;20411;-78
2020/12/07 03:35:27;;;;;;;18.88;11.10;;;;;;;;;;4973520;28;20126;-79
2020/12/07 03:37:53;;;;;;;19.27;11.52;;;;;;;;;;4973293;28;20057;-78
2020/12/07 03:40:20;;;;;;;21.05;10.95;;;;;;;;;;4962166;28;20054;-78
2020/12/07 03:42:46;;;;;;;18.58;11.07;;;;;;;;;;4956036;29;20054;-78
2020/12/07 03:45:12;;;;;;;18.63;10.68;;;;;;;;;;4962612;28;20114;-78
2020/12/07 03:47:38;;;;;;;20.13;10.93;;;;;;;;;;4963695;28;20043;-77
2020/12/07 03:50:05;;;;;;;18.83;11.05;;;;;;;;;;4961947;28;20055;-79
2020/12/07 03:52:31;;;;;;;16.55;10.25;;;;;;;;;;4959814;28;20046;-78
2020/12/07 03:54:57;;;;;;;19.33;11.15;;;;;;;;;;4952422;28;20118;-78
2020/12/07 03:57:25;;;;;;;18.90;11.15;;;;;;;;;;4952216;29;20054;-78
2020/12/07 03:59:51;;;;;;;17.58;10.95;;;;;;;;;;4953499;29;20047;-78
2020/12/07 04:02:18;;;;;;;19.35;11.27;;;;;;;;;;4953146;29;20565;-80
2020/12/07 04:04:52;;;;;;;16.95;11.05;;;;;;;;;;4952726;28;20110;-79
2020/12/07 04:07:18;;;;;;;18.75;10.80;;;;;;;;;;4937768;29;20086;-80
2020/12/07 04:09:48;;;;;;;18.83;10.73;;;;;;;;;;4954608;28;20526;-79
2020/12/07 04:12:15;;;;;;;17.60;10.93;;;;;;;;;;4937506;29;20055;-79
2020/12/07 04:14:43;;;;;;;18.95;11.20;;;;;;;;;;4954141;28;20048;-79
2020/12/07 04:17:12;;;;;;;21.00;11.50;;;;;;;;;;4937527;29;20047;-80
2020/12/07 04:19:39;;;;;;;18.73;11.32;;;;;;;;;;4953379;28;20047;-79
2020/12/07 04:22:05;;;;;;;17.35;11.20;;;;;;;;;;4959069;28;20138;-78
2020/12/07 04:24:33;;;;;;;18.33;10.90;;;;;;;;;;4964207;28;20054;-78
2020/12/07 04:26:59;;;;;;;17.02;11.18;;;;;;;;;;4953994;28;20054;-78
2020/12/07 04:29:25;;;;;;;21.05;11.48;;;;;;;;;;4956077;28;20039;-78
2020/12/07 04:31:59;;;;;;;21.13;12.02;;;;;;;;;;4968147;28;20048;-78
2020/12/07 04:34:25;;;;;;;19.63;11.40;;;;;;;;;;4948154;28;20082;-78
2020/12/07 04:36:54;;;;;;;20.23;11.23;;;;;;;;;;4955688;29;20047;-79
2020/12/07 04:39:21;;;;;;;18.38;11.20;;;;;;;;;;4956113;29;20055;-79
2020/12/07 04:41:47;;;;;;;18.92;10.88;;;;;;;;;;4956042;29;20522;-77
2020/12/07 04:44:14;;;;;;;16.88;10.98;;;;;;;;;;4940030;28;20130;-79
2020/12/07 04:46:42;;;;;;;18.98;11.68;;;;;;;;;;4939150;29;20047;-78
2020/12/07 04:49:09;;;;;;;18.65;11.23;;;;;;;;;;4957646;28;20046;-77
2020/12/07 04:51:36;;;;;;;22.27;11.82;;;;;;;;;;4975001;28;20050;-79
2020/12/07 04:54:03;;;;;;;18.70;11.55;;;;;;;;;;4970343;28;20039;-77
2020/12/07 04:56:30;;;;;;;19.73;11.52;;;;;;;;;;4957874;28;20051;-78
2020/12/07 04:58:58;;;;;;;18.95;12.10;;;;;;;;;;4975619;28;20062;-77
2020/12/07 05:01:24;;;;;;;20.05;11.70;;;;;;;;;;4976069;28;20054;-79
2020/12/07 05:03:50;;;;;;;21.73;11.23;;;;;;;;;;4973101;28;20042;-79
2020/12/07 05:06:18;;;;;;;19.73;12.07;;;;;;;;;;4975514;28;20057;-79
2020/12/07 05:08:45;;;;;;;19.80;11.68;;;;;;;;;;4976480;28;20085;-79
2020/12/07 05:11:12;;;;;;;21.33;12.07;;;;;;;;;;4978796;28;20051;-79
2020/12/07 05:13:46;;;;;;;20.75;11.82;;;;;;;;;;5016590;28;20145;-82
2020/12/07 05:16:14;;;;;;;20.20;11.73;;;;;;;;;;4975874;28;20078;-81
2020/12/07 05:18:44;;;;;;;19.95;11.63;;;;;;;;;;4976044;28;20049;-82
2020/12/07 05:21:17;;;;;;;18.48;11.80;;;;;;;;;;4991356;28;20090;-81
2020/12/07 05:23:51;;;;;;;24.42;13.13;;;;;;;;;;4974243;28;20604;-81
2020/12/07 05:26:19;;;;;;;22.10;12.27;;;;;;;;;;4974315;28;20043;-79
2020/12/07 05:28:54;;;;;;;22.85;12.05;;;;;;;;;;4975020;28;20049;-79
2020/12/07 05:31:31;;;;;;;19.67;11.90;;;;;;;;;;4957710;28;20051;-79
2020/12/07 05:34:04;;;;;;;22.95;12.55;;;;;;;;;;4972945;28;20043;-78
2020/12/07 05:36:32;;;;;;;21.30;12.15;;;;;;;;;;4973036;28;20181;-79
2020/12/07 05:39:08;;;;;;;23.25;12.32;;;;;;;;;;4973726;28;20197;-79
2020/12/07 05:41:38;;;;;;;22.45;12.82;;;;;;;;;;4967843;28;20146;-80
2020/12/07 05:44:08;;;;;;;22.88;12.52;;;;;;;;;;4972757;28;20252;-80
2020/12/07 05:46:42;;;;;;;19.30;12.00;;;;;;;;;;4959041;28;20109;-80
2020/12/07 05:49:09;;;;;;;20.13;12.25;;;;;;;;;;4974877;28;20073;-80
2020/12/07 05:51:43;;;;;;;20.88;12.35;;;;;;;;;;4973107;28;20094;-80
2020/12/07 05:54:11;;;;;;;20.75;12.52;;;;;;;;;;4970403;28;20723;-80
2020/12/07 05:56:48;;;;;;;21.65;13.05;;;;;;;;;;4970032;28;20078;-80
2020/12/07 05:59:29;;;;;;;20.65;12.93;;;;;;;;;;4977976;28;20050;-81
2020/12/07 06:02:02;;;;;;;25.88;13.63;;;;;;;;;;4976718;28;20053;-80
2020/12/07 06:04:37;;;;;;;21.15;12.77;;;;;;;;;;4968756;28;20050;-79
2020/12/07 06:07:29;;;;;;;23.63;13.82;;;;;;;;;;4970712;28;20050;-79
2020/12/07 06:09:59;;;;;;;22.63;13.15;;;;;;;;;;4954061;28;20046;-77
2020/12/07 06:12:41;;;;;;;23.52;12.63;;;;;;;;;;4961355;28;20046;-79
2020/12/07 06:15:10;;;;;;;25.75;13.45;;;;;;;;;;4967943;28;20735;-79
2020/12/07 06:17:39;;;;;;;21.20;13.15;;;;;;;;;;4982458;28;20525;-78
2020/12/07 06:20:09;;;;;;;24.10;13.55;;;;;;;;;;4967183;28;20047;-79
2020/12/07 06:22:53;;;;;;;21.65;12.98;;;;;;;;;;4976294;28;20061;-79
2020/12/07 06:25:34;;;;;;;25.83;13.10;;;;;;;;;;4991591;28;20077;-76
2020/12/07 06:28:05;;;;;;;20.90;12.05;;;;;;;;;;4973438;28;20054;-78
2020/12/07 06:30:44;;;;;;;24.95;13.18;;;;;;;;;;4956267;28;20047;-79
2020/12/07 06:33:13;;;;;;;22.85;13.25;;;;;;;;;;4972835;28;20047;-79
2020/12/07 06:35:48;;;;;;;21.88;12.65;;;;;;;;;;4957224;28;20074;-78
2020/12/07 06:38:16;;;;;;;23.65;13.38;;;;;;;;;;4973517;28;20047;-80
2020/12/07 06:40:42;;;;;;;21.17;12.75;;;;;;;;;;4957161;28;20213;-78
2020/12/07 06:43:32;;;;;;;21.60;13.07;;;;;;;;;;4974238;28;20023;-81
2020/12/07 06:46:33;;;;;;;20.05;12.20;;;;;;;;;;4980369;28;20054;-79
2020/12/07 06:49:03;;;;;;;22.63;12.80;;;;;;;;;;4960303;28;20039;-78
2020/12/07 06:51:38;;;;;;;21.67;12.02;;;;;;;;;;4953279;28;20054;-78
2020/12/07 06:57:21;;;;;;;20.85;12.68;;;;;;;;;;4966241;28;20066;-79
2020/12/07 07:03:31;;;;;;;23.70;12.48;;;;;;;;;;4962652;28;20495;-78
2020/12/07 07:06:10;;;;;;;27.75;13.60;;;;;;;;;;4969008;28;20039;-77
2020/12/07 07:08:42;;;;;;;22.35;12.35;;;;;;;;;;4970609;28;20557;-78
2020/12/07 07:11:12;;;;;;;20.13;12.57;;;;;;;;;;4971011;28;20589;-77
2020/12/07 07:13:40;;;;;;;21.65;12.50;;;;;;;;;;4954930;28;20078;-79
2020/12/07 07:16:06;;;;;;;21.08;12.00;;;;;;;;;;4971231;28;20055;-78
2020/12/07 07:18:37;;;;;;;21.35;12.23;;;;;;;;;;4970619;28;20046;-79
2020/12/07 07:21:04;;;;;;;19.17;11.05;;;;;;;;;;4966050;28;20047;-78
2020/12/07 07:23:30;;;;;;;16.35;9.63;;;;;;;;;;4953006;28;20055;-79
2020/12/07 07:26:12;;;;;;;15.77;9.85;;;;;;;;;;4950598;28;20459;-78
2020/12/07 07:28:38;;;;;;;19.27;10.45;;;;;;;;;;4951795;29;20065;-79
2020/12/07 07:31:05;;;;;;;17.23;9.60;;;;;;;;;;4950146;28;20307;-78
2020/12/07 07:33:31;;;;;;;18.88;9.90;;;;;;;;;;4951157;28;20043;-79
2020/12/07 07:35:57;;;;;;;16.52;9.32;;;;;;;;;;4956542;28;20045;-79
2020/12/07 07:38:30;;;;;;;18.35;9.80;;;;;;;;;;4972499;28;20487;-79
2020/12/07 07:40:56;;;;;;;15.98;8.68;;;;;;;;;;4969248;28;20055;-79
2020/12/07 07:43:26;;;;;;;15.18;8.75;;;;;;;;;;4980395;28;20092;-79
2020/12/07 07:45:58;;;;;;;14.77;8.90;;;;;;;;;;4972103;28;20050;-79
2020/12/07 07:54:12;;;;;;;21.27;11.07;;;;;;;;;;4962544;28;20121;-78
2020/12/07 08:17:18;;;;;;;14.20;7.93;;;;;;;;;;4979934;28;20277;-79
2020/12/07 08:20:29;;;;;;;14.20;8.18;;;;;;;;;;4981341;28;20137;-80
2020/12/07 08:23:09;;;;;;;15.57;8.48;;;;;;;;;;4926077;28;20057;-80
2020/12/07 08:26:10;;;;;;;15.15;7.95;;;;;;;;;;4948547;29;20047;-80
2020/12/07 08:29:00;;;;;;;15.80;8.25;;;;;;;;;;4962878;28;20061;-79
2020/12/07 08:31:49;;;;;;;13.48;7.68;;;;;;;;;;4960439;29;20106;-81
2020/12/07 08:34:29;;;;;;;14.35;7.80;;;;;;;;;;4963198;28;20103;-80
2020/12/07 08:37:06;;;;;;;15.40;8.40;;;;;;;;;;4971990;28;20055;-80
2020/12/07 08:39:47;;;;;;;16.48;8.52;;;;;;;;;;4960150;28;20050;-80
2020/12/07 08:42:26;;;;;;;16.98;8.77;;;;;;;;;;4976741;28;20058;-79
2020/12/07 08:45:04;;;;;;;15.18;7.40;;;;;;;;;;4974661;28;20285;-80
2020/12/07 08:47:48;;;;;;;13.70;7.00;;;;;;;;;;4974825;28;20047;-80
2020/12/07 08:50:30;;;;;;;13.75;7.25;;;;;;;;;;4986461;28;20050;-80
2020/12/07 08:53:44;;;;;;;15.68;7.20;;;;;;;;;;5000121;28;20070;-80
2020/12/07 08:56:20;;;;;;;13.00;6.90;;;;;;;;;;4999107;28;20182;-80
2020/12/07 08:59:12;;;;;;;13.30;6.93;;;;;;;;;;4987029;28;20042;-80
2020/12/07 09:01:58;;;;;;;15.85;7.60;;;;;;;;;;4984145;28;20058;-78
2020/12/07 09:05:00;;;;;;;12.95;7.00;;;;;;;;;;4991935;28;20043;-78
2020/12/07 09:07:50;;;;;;;10.23;5.28;;;;;;;;;;4979958;28;20047;-81
2020/12/07 09:10:20;;;;;;;9.88;5.22;;;;;;;;;;4981893;28;20067;-80
2020/12/07 09:13:06;;;;;;;8.25;4.70;;;;;;;;;;4984039;28;20047;-81
2020/12/07 09:19:26;;;;;;;8.93;4.32;;;;;;;;;;4966677;28;20050;-80
2020/12/07 09:22:42;;;;;;;9.07;3.70;;;;;;;;;;4975620;28;20047;-80
2020/12/07 09:25:21;;;;;;;6.47;3.20;;;;;;;;;;4983189;28;20454;-81
2020/12/07 09:28:01;;;;;;;4.93;2.95;;;;;;;;;;4972249;28;20419;-80
2020/12/07 09:30:44;;;;;;;7.18;3.30;;;;;;;;;;4948209;29;20109;-81
2020/12/07 09:33:23;;;;;;;5.15;3.00;;;;;;;;;;4964450;29;20048;-80
2020/12/07 09:36:05;;;;;;;6.60;2.95;;;;;;;;;;4949516;28;20548;-80
2020/12/07 09:38:45;;;;;;;5.80;3.30;;;;;;;;;;4965826;28;20039;-80
2020/12/07 09:41:16;;;;;;;6.80;3.65;;;;;;;;;;4964525;28;20051;-79
2020/12/07 09:44:01;;;;;;;6.28;3.25;;;;;;;;;;4949242;29;20047;-80
2020/12/07 09:46:37;;;;;;;7.05;3.70;;;;;;;;;;4979500;28;20081;-79
2020/12/07 09:49:21;;;;;;;6.22;3.50;;;;;;;;;;4977878;28;20117;-79
2020/12/07 09:52:05;;;;;;;6.55;3.40;;;;;;;;;;4983026;28;20042;-81
2020/12/07 09:54:50;;;;;;;5.82;3.42;;;;;;;;;;4968674;28;20049;-80
2020/12/07 09:57:29;;;;;;;6.45;3.40;;;;;;;;;;4995351;28;20097;-81
2020/12/07 10:00:33;;;;;;;5.80;2.80;;;;;;;;;;4977708;28;20589;-80
2020/12/07 10:03:11;;;;;;;4.25;2.60;;;;;;;;;;4984033;28;20057;-81
2020/12/07 10:05:50;;;;;;;4.53;2.40;;;;;;;;;;4966799;28;20051;-81
2020/12/07 10:08:30;;;;;;;5.30;2.58;;;;;;;;;;4989375;28;20110;-82
2020/12/07 10:11:21;;;;;;;5.57;3.13;;;;;;;;;;4986208;28;20345;-81
2020/12/07 10:14:14;;;;;;;4.82;2.72;;;;;;;;;;4983121;28;20047;-80
2020/12/07 10:16:50;;;;;;;4.97;2.60;;;;;;;;;;4970666;28;20051;-81
2020/12/07 10:19:27;;;;;;;4.72;2.60;;;;;;;;;;4975346;28;20046;-81
2020/12/07 10:22:09;;;;;;;4.40;2.45;;;;;;;;;;4988270;28;20150;-80
2020/12/07 10:24:46;;;;;;;5.07;2.50;;;;;;;;;;4987737;28;20066;-82
2020/12/07 10:27:22;;;;;;;4.72;2.60;;;;;;;;;;4984357;28;20047;-81
2020/12/07 10:29:53;;;;;;;4.47;2.40;;;;;;;;;;4982945;28;20042;-80
2020/12/07 10:32:33;;;;;;;4.70;2.72;;;;;;;;;;4953280;28;20114;-80
2020/12/07 10:35:09;;;;;;;3.80;2.30;;;;;;;;;;4967514;28;20384;-82
2020/12/07 10:38:05;;;;;;;5.25;2.75;;;;;;;;;;4968468;28;20118;-78
2020/12/07 10:40:37;;;;;;;;;;;;;;;;;;4962821;28;20054;-81
2020/12/07 10:43:26;;;;;;;4.50;2.45;;;;;;;;;;4996762;28;19918;-79
2020/12/07 10:46:04;;;;;;;5.43;2.70;;;;;;;;;;4977676;28;20062;-78
2020/12/07 10:48:49;;;;;;;4.43;2.63;;;;;;;;;;4993713;28;20050;-82
2020/12/07 10:51:37;;;;;;;5.75;2.75;;;;;;;;;;4999773;28;20050;-79
2020/12/07 10:54:25;;;;;;;4.57;2.53;;;;;;;;;;4995956;28;20109;-81
2020/12/07 10:56:56;;;;;;;4.38;2.40;;;;;;;;;;4984860;28;20072;-81
2020/12/07 10:59:52;;;;;;;3.78;1.88;;;;;;;;;;4979852;28;20278;-81
2020/12/07 11:02:35;;;;;;;4.32;2.22;;;;;;;;;;4962483;28;20047;-79
2020/12/07 11:05:40;;;;;;;3.50;1.95;;;;;;;;;;4974113;28;20035;-80
2020/12/07 11:08:38;;;;;;;3.75;2.20;;;;;;;;;;4977957;28;20053;-81
2020/12/07 11:11:33;;;;;;;7.45;2.40;;;;;;;;;;4967631;28;20138;-81
2020/12/07 11:14:26;;;;;;;5.05;2.20;;;;;;;;;;4979243;28;20039;-81
2020/12/07 11:17:09;;;;;;;3.20;2.00;;;;;;;;;;4969515;28;20039;-83
2020/12/07 11:20:02;;;;;;;3.60;2.20;;;;;;;;;;4976453;28;20047;-81
2020/12/07 11:23:18;;;;;;;3.47;2.00;;;;;;;;;;4955656;28;20486;-80
2020/12/07 11:26:04;;;;;;;3.30;2.28;;;;;;;;;;4963511;28;20058;-80
2020/12/07 11:29:18;;;;;;;3.70;2.10;;;;;;;;;;4983121;28;20507;-80
2020/12/07 11:32:44;;;;;;;2.88;1.80;;;;;;;;;;4978595;28;20061;-79
2020/12/07 11:42:09;;;;;;;5.85;1.70;;;;;;;;;;4979226;28;20510;-79
2020/12/07 11:44:36;;;;;;;2.13;1.50;;;;;;;;;;4997388;28;20050;-79
2020/12/07 11:47:09;;;;;;;1.92;1.52;;;;;;;;;;4978494;28;20058;-81
2020/12/07 11:49:39;;;;;;;2.40;1.67;;;;;;;;;;4942196;29;20047;-80
2020/12/07 11:52:10;;;;;;;1.88;1.30;;;;;;;;;;4956933;28;20043;-78
2020/12/07 11:54:38;;;;;;;2.80;1.88;;;;;;;;;;4969239;28;20035;-78
2020/12/07 11:57:06;;;;;;;3.58;1.48;;;;;;;;;;4956942;28;20047;-80
2020/12/07 11:59:36;;;;;;;2.85;1.92;;;;;;;;;;4969786;28;20074;-78
2020/12/07 12:02:11;;;;;;;1.85;1.40;;;;;;;;;;4981526;28;20046;-81
2020/12/07 12:04:44;;;;;;;2.38;1.70;;;;;;;;;;4979845;28;20422;-79
2020/12/07 12:07:16;;;;;;;2.10;1.40;;;;;;;;;;4982512;28;20046;-81
2020/12/07 12:09:47;;;;;;;1.90;1.30;;;;;;;;;;4977835;28;20039;-79
2020/12/07 12:12:19;;;;;;;1.90;1.38;;;;;;;;;;4978003;28;20043;-79
2020/12/07 12:14:50;;;;;;;2.45;1.48;;;;;;;;;;4980389;28;20051;-80
2020/12/07 12:17:33;;;;;;;1.85;1.50;;;;;;;;;;4979815;28;20047;-79
2020/12/07 12:20:14;;;;;;;2.15;1.42;;;;;;;;;;4979221;28;20050;-80
2020/12/07 12:22:44;;;;;;;2.85;1.70;;;;;;;;;;4978377;28;20058;-79
2020/12/07 12:25:25;;;;;;;2.47;1.65;;;;;;;;;;4976637;28;20184;-79
2020/12/07 12:27:59;;;;;;;3.10;1.90;;;;;;;;;;4977619;28;20043;-79
2020/12/07 12:30:31;;;;;;;6.38;3.70;;;;;;;;;;4980094;28;20550;-79
2020/12/07 12:33:12;;;;;;;4.13;2.55;;;;;;;;;;4948604;28;20572;-79
2020/12/07 12:35:52;;;;;;;3.05;2.17;;;;;;;;;;4977152;28;20047;-78
2020/12/07 12:38:26;;;;;;;3.15;2.05;;;;;;;;;;4964606;28;20058;-81
2020/12/07 12:41:16;;;;;;;2.58;1.83;;;;;;;;;;4969936;28;20061;-81
2020/12/07 12:44:13;;;;;;;3.97;2.20;;;;;;;;;;4976527;28;20047;-80
2020/12/07 12:46:50;;;;;;;4.03;2.42;;;;;;;;;;4964299;28;20045;-78
2020/12/07 12:49:25;;;;;;;3.63;2.30;;;;;;;;;;4965976;28;20039;-81
2020/12/07 12:52:03;;;;;;;4.68;2.22;;;;;;;;;;4966643;28;20114;-80
2020/12/07 12:55:06;;;;;;;5.38;2.60;;;;;;;;;;4974185;28;20070;-79
2020/12/07 12:57:46;;;;;;;;;;;;;;;;;;4989822;28;20046;-79
2020/12/07 13:00:17;;;;;;;3.38;2.25;;;;;;;;;;5006968;28;19929;-78
2020/12/07 13:03:02;;;;;;;3.47;2.17;;;;;;;;;;4989914;28;20071;-79
2020/12/07 13:05:41;;;;;;;3.88;2.50;;;;;;;;;;4983606;28;20098;-78
2020/12/07 13:08:26;;;;;;;4.13;2.58;;;;;;;;;;4987618;28;20047;-80
2020/12/07 13:11:16;;;;;;;3.72;2.40;;;;;;;;;;4986325;28;20042;-80
2020/12/07 13:13:56;;;;;;;3.47;2.20;;;;;;;;;;4995502;28;20051;-80
2020/12/07 13:16:27;;;;;;;3.95;2.17;;;;;;;;;;4970329;28;20118;-81
2020/12/07 13:18:56;;;;;;;3.88;1.83;;;;;;;;;;4952708;29;20459;-80
2020/12/07 13:21:34;;;;;;;4.20;2.88;;;;;;;;;;4965068;28;20047;-78
2020/12/07 13:24:18;;;;;;;5.50;2.20;;;;;;;;;;4959953;28;20715;-82
2020/12/07 13:26:56;;;;;;;3.42;2.20;;;;;;;;;;4946170;29;20062;-80
2020/12/07 13:30:10;;;;;;;4.10;2.33;;;;;;;;;;4964878;28;20047;-81
2020/12/07 13:33:13;;;;;;;6.00;2.10;;;;;;;;;;4982402;28;20050;-80
2020/12/07 13:39:33;;;;;;;4.05;2.50;;;;;;;;;;4985077;28;20051;-82
2020/12/07 13:42:15;;;;;;;3.72;2.20;;;;;;;;;;4975734;28;20294;-80
2020/12/07 13:44:49;;;;;;;6.88;2.55;;;;;;;;;;4976796;28;20070;-79
2020/12/07 13:47:21;;;;;;;4.53;2.28;;;;;;;;;;4976297;28;20605;-80
2020/12/07 13:49:50;;;;;;;4.15;2.40;;;;;;;;;;4972694;28;20063;-80
2020/12/07 13:52:49;;;;;;;4.07;2.55;;;;;;;;;;4976435;28;20039;-79
2020/12/07 13:56:03;;;;;;;3.78;2.30;;;;;;;;;;4972829;28;20047;-79
2020/12/07 13:58:45;;;;;;;;;;;;;;;;;;;;;
2020/12/07 14:01:23;;;;;;;3.67;2.30;;;;;;;;;;4932740;29;20218;-78
2020/12/07 14:06:51;;;;;;;9.93;5.75;;;;;;;;;;4934947;29;20051;-79
2020/12/07 14:09:33;;;;;;;4.63;2.83;;;;;;;;;;4935932;28;20122;-79
2020/12/07 14:12:09;;;;;;;4.05;2.40;;;;;;;;;;4937824;29;20135;-77
2020/12/07 14:14:54;;;;;;;4.72;2.95;;;;;;;;;;4953803;29;20505;-80
2020/12/07 14:17:38;;;;;;;;;;;;;;;;;;;;;
2020/12/07 14:20:16;;;;;;;4.15;2.75;;;;;;;;;;4933445;29;20035;-78
2020/12/07 14:40:55;;;;;;;5.97;3.38;;;;;;;;;;4934483;29;20052;-80
2020/12/07 14:43:42;;;;;;;3.90;2.38;;;;;;;;;;4934506;29;20099;-81
2020/12/07 14:46:22;;;;;;;5.28;3.25;;;;;;;;;;4948907;29;20035;-78
2020/12/07 14:48:51;;;;;;;5.53;3.55;;;;;;;;;;4952145;28;20071;-80
2020/12/07 14:53:48;;;;;;;6.32;3.90;;;;;;;;;;4949702;29;20054;-80
2020/12/07 14:56:33;;;;;;;9.10;4.55;;;;;;;;;;4914751;29;20111;-79
2020/12/07 15:06:59;;;;;;;7.00;3.67;;;;;;;;;;4915050;29;20055;-79
2020/12/07 15:14:39;;;;;;;8.38;4.45;;;;;;;;;;4918335;29;20556;-79
2020/12/07 15:17:06;;;;;;;8.68;4.90;;;;;;;;;;4919658;29;20052;-79
2020/12/07 15:19:33;;;;;;;8.55;4.03;;;;;;;;;;4915454;29;20445;-79
2020/12/07 15:22:00;;;;;;;8.00;3.88;;;;;;;;;;4934440;29;20123;-78
2020/12/07 15:24:26;;;;;;;9.23;4.70;;;;;;;;;;4917469;29;20415;-80
2020/12/07 15:26:52;;;;;;;7.55;4.30;;;;;;;;;;4932830;29;20052;-80
2020/12/07 15:29:18;;;;;;;10.18;4.50;;;;;;;;;;4935326;29;20044;-79
2020/12/07 15:31:44;;;;;;;8.05;4.40;;;;;;;;;;4934019;29;20111;-79
2020/12/07 15:34:10;;;;;;;7.72;3.92;;;;;;;;;;4933528;29;20075;-80
2020/12/07 15:36:36;;;;;;;9.80;4.63;;;;;;;;;;4936846;29;20051;-78
2020/12/07 15:39:03;;;;;;;12.25;4.75;;;;;;;;;;4938642;29;20032;-78
2020/12/07 15:41:29;;;;;;;9.23;4.30;;;;;;;;;;4936505;29;20055;-77
2020/12/07 15:43:55;;;;;;;7.95;4.95;;;;;;;;;;4933905;29;20039;-79
2020/12/07 15:46:27;;;;;;;7.55;4.45;;;;;;;;;;4939636;29;20059;-78
2020/12/07 15:48:53;;;;;;;8.15;4.65;;;;;;;;;;4933973;29;20054;-78
2020/12/07 15:51:19;;;;;;;8.52;4.85;;;;;;;;;;4937536;29;20047;-78
2020/12/07 15:53:46;;;;;;;9.35;5.05;;;;;;;;;;4934171;29;20405;-79
2020/12/07 15:56:13;;;;;;;11.02;5.18;;;;;;;;;;4934298;29;20330;-79
2020/12/07 15:58:40;;;;;;;8.27;4.82;;;;;;;;;;4933189;29;20035;-80
2020/12/07 16:01:06;;;;;;;10.82;5.20;;;;;;;;;;4952003;29;20452;-79
2020/12/07 16:03:35;;;;;;;7.88;4.93;;;;;;;;;;4932108;29;20139;-79
2020/12/07 16:06:03;;;;;;;9.27;4.45;;;;;;;;;;4948564;29;20527;-79
2020/12/07 16:08:35;;;;;;;10.90;4.82;;;;;;;;;;4933137;29;20051;-81
2020/12/07 16:11:07;;;;;;;10.45;4.90;;;;;;;;;;4934388;29;20040;-79
2020/12/07 16:13:33;;;;;;;8.65;5.20;;;;;;;;;;4949555;29;20056;-80
2020/12/07 16:16:02;;;;;;;9.48;5.80;;;;;;;;;;4934773;29;20508;-79
2020/12/07 16:18:40;;;;;;;7.70;4.90;;;;;;;;;;4936730;29;20059;-80
2020/12/07 16:21:30;;;;;;;;;;;;;;;;;;;;;
2020/12/07 16:24:37;;;;;;;11.63;5.80;;;;;;;;;;4933511;29;20044;-79
2020/12/07 16:27:06;;;;;;;9.93;5.35;;;;;;;;;;4934293;29;20048;-79
2020/12/07 16:29:53;;;;;;;9.88;5.70;;;;;;;;;;4934145;29;20071;-79
2020/12/07 16:32:22;;;;;;;10.18;5.57;;;;;;;;;;4935561;29;20039;-79
2020/12/07 16:34:54;;;;;;;9.20;5.97;;;;;;;;;;4932734;29;20067;-79
2020/12/07 16:37:23;;;;;;;10.55;6.05;;;;;;;;;;4935132;29;20040;-79